sensor_id;sensor_type;location;lat;lon;timestamp;P1;durP1;ratioP1;P2;durP2;ratioP2
17361;SDS011;8798;51.938;4.348;2023-12-22T00:00:59;11.93;;;2.17;;
17361;SDS011;8798;51.938;4.348;2023-12-22T00:03:28;16.23;;;1.90;;
17361;SDS011;8798;51.938;4.348;2023-12-22T00:05:56;8.00;;;1.70;;
17361;SDS011;8798;51.938;4.348;2023-12-22T00:08:25;11.37;;;2.40;;
17361;SDS011;8798;51.938;4.348;2023-12-22T00:10:53;15.53;;;1.83;;
17361;SDS011;8798;51.938;4.348;2023-12-22T00:13:21;12.90;;;1.77;;
17361;SDS011;8798;51.938;4.348;2023-12-22T00:15:49;10.87;;;2.30;;
17361;SDS011;8798;51.938;4.348;2023-12-22T00:18:17;14.30;;;1.70;;
17361;SDS011;8798;51.938;4.348;2023-12-22T00:20:46;12.27;;;1.80;;
17361;SDS011;8798;51.938;4.348;2023-12-22T00:23:15;11.60;;;1.67;;
17361;SDS011;8798;51.938;4.348;2023-12-22T00:25:43;14.03;;;2.10;;
17361;SDS011;8798;51.938;4.348;2023-12-22T00:28:11;11.33;;;2.03;;
17361;SDS011;8798;51.938;4.348;2023-12-22T00:30:40;10.03;;;1.80;;
17361;SDS011;8798;51.938;4.348;2023-12-22T00:33:08;9.80;;;1.97;;
17361;SDS011;8798;51.938;4.348;2023-12-22T00:35:37;11.17;;;2.27;;
17361;SDS011;8798;51.938;4.348;2023-12-22T00:38:06;11.80;;;2.20;;
17361;SDS011;8798;51.938;4.348;2023-12-22T00:40:35;8.87;;;1.57;;
17361;SDS011;8798;51.938;4.348;2023-12-22T00:43:03;9.37;;;1.73;;
17361;SDS011;8798;51.938;4.348;2023-12-22T00:45:31;13.53;;;2.00;;
17361;SDS011;8798;51.938;4.348;2023-12-22T00:47:59;11.53;;;1.87;;
17361;SDS011;8798;51.938;4.348;2023-12-22T00:50:28;11.63;;;2.30;;
17361;SDS011;8798;51.938;4.348;2023-12-22T00:52:56;12.47;;;1.87;;
17361;SDS011;8798;51.938;4.348;2023-12-22T00:55:26;10.17;;;2.00;;
17361;SDS011;8798;51.938;4.348;2023-12-22T00:57:56;9.13;;;2.53;;
17361;SDS011;8798;51.938;4.348;2023-12-22T01:00:25;12.37;;;1.77;;
17361;SDS011;8798;51.938;4.348;2023-12-22T01:02:53;8.53;;;2.03;;
17361;SDS011;8798;51.938;4.348;2023-12-22T01:05:21;14.47;;;2.27;;
17361;SDS011;8798;51.938;4.348;2023-12-22T01:07:49;14.70;;;2.20;;
17361;SDS011;8798;51.938;4.348;2023-12-22T01:10:18;16.20;;;3.00;;
17361;SDS011;8798;51.938;4.348;2023-12-22T01:12:47;10.73;;;2.03;;
17361;SDS011;8798;51.938;4.348;2023-12-22T01:15:16;15.50;;;2.37;;
17361;SDS011;8798;51.938;4.348;2023-12-22T01:17:44;7.77;;;1.90;;
17361;SDS011;8798;51.938;4.348;2023-12-22T01:20:12;10.97;;;2.60;;
17361;SDS011;8798;51.938;4.348;2023-12-22T01:22:43;8.57;;;1.87;;
17361;SDS011;8798;51.938;4.348;2023-12-22T01:25:11;15.87;;;2.80;;
17361;SDS011;8798;51.938;4.348;2023-12-22T01:27:39;12.20;;;1.90;;
17361;SDS011;8798;51.938;4.348;2023-12-22T01:30:09;16.83;;;2.87;;
17361;SDS011;8798;51.938;4.348;2023-12-22T01:32:37;13.73;;;1.97;;
17361;SDS011;8798;51.938;4.348;2023-12-22T01:35:07;16.77;;;2.47;;
17361;SDS011;8798;51.938;4.348;2023-12-22T01:37:37;13.30;;;2.70;;
17361;SDS011;8798;51.938;4.348;2023-12-22T01:40:06;9.07;;;2.10;;
17361;SDS011;8798;51.938;4.348;2023-12-22T01:42:35;18.73;;;2.73;;
17361;SDS011;8798;51.938;4.348;2023-12-22T01:45:03;10.33;;;2.20;;
17361;SDS011;8798;51.938;4.348;2023-12-22T01:47:33;12.70;;;2.60;;
17361;SDS011;8798;51.938;4.348;2023-12-22T01:50:03;14.00;;;2.27;;
17361;SDS011;8798;51.938;4.348;2023-12-22T01:52:32;13.77;;;2.33;;
17361;SDS011;8798;51.938;4.348;2023-12-22T01:55:00;14.30;;;2.17;;
17361;SDS011;8798;51.938;4.348;2023-12-22T01:57:29;10.33;;;1.77;;
17361;SDS011;8798;51.938;4.348;2023-12-22T01:59:57;11.23;;;2.60;;
17361;SDS011;8798;51.938;4.348;2023-12-22T02:02:25;7.33;;;2.13;;
17361;SDS011;8798;51.938;4.348;2023-12-22T02:04:56;9.67;;;1.80;;
17361;SDS011;8798;51.938;4.348;2023-12-22T02:07:25;13.40;;;2.00;;
17361;SDS011;8798;51.938;4.348;2023-12-22T02:09:53;11.93;;;1.73;;
17361;SDS011;8798;51.938;4.348;2023-12-22T02:12:21;7.10;;;1.57;;
17361;SDS011;8798;51.938;4.348;2023-12-22T02:14:50;12.27;;;2.43;;
17361;SDS011;8798;51.938;4.348;2023-12-22T02:17:20;14.13;;;1.63;;
17361;SDS011;8798;51.938;4.348;2023-12-22T02:19:53;6.77;;;1.40;;
17361;SDS011;8798;51.938;4.348;2023-12-22T02:22:23;9.23;;;1.83;;
17361;SDS011;8798;51.938;4.348;2023-12-22T02:24:53;6.37;;;1.80;;
17361;SDS011;8798;51.938;4.348;2023-12-22T02:27:24;8.70;;;1.70;;
17361;SDS011;8798;51.938;4.348;2023-12-22T02:30:06;8.40;;;2.07;;
17361;SDS011;8798;51.938;4.348;2023-12-22T02:32:38;12.00;;;2.17;;
17361;SDS011;8798;51.938;4.348;2023-12-22T02:35:11;9.27;;;1.70;;
17361;SDS011;8798;51.938;4.348;2023-12-22T02:37:43;10.07;;;1.90;;
17361;SDS011;8798;51.938;4.348;2023-12-22T02:40:16;7.63;;;1.47;;
17361;SDS011;8798;51.938;4.348;2023-12-22T02:42:46;7.63;;;2.20;;
17361;SDS011;8798;51.938;4.348;2023-12-22T02:45:14;5.17;;;1.40;;
17361;SDS011;8798;51.938;4.348;2023-12-22T02:47:44;12.57;;;2.00;;
17361;SDS011;8798;51.938;4.348;2023-12-22T02:50:12;4.70;;;1.27;;
17361;SDS011;8798;51.938;4.348;2023-12-22T02:52:42;9.83;;;2.00;;
17361;SDS011;8798;51.938;4.348;2023-12-22T02:55:10;7.00;;;1.70;;
17361;SDS011;8798;51.938;4.348;2023-12-22T02:57:40;5.83;;;1.70;;
17361;SDS011;8798;51.938;4.348;2023-12-22T03:00:08;9.97;;;1.60;;
17361;SDS011;8798;51.938;4.348;2023-12-22T03:02:37;9.07;;;2.10;;
17361;SDS011;8798;51.938;4.348;2023-12-22T03:05:05;13.17;;;2.37;;
17361;SDS011;8798;51.938;4.348;2023-12-22T03:07:34;13.30;;;2.23;;
17361;SDS011;8798;51.938;4.348;2023-12-22T03:10:02;8.97;;;1.50;;
17361;SDS011;8798;51.938;4.348;2023-12-22T03:12:31;7.77;;;1.60;;
17361;SDS011;8798;51.938;4.348;2023-12-22T03:15:00;15.00;;;2.30;;
17361;SDS011;8798;51.938;4.348;2023-12-22T03:17:29;11.00;;;2.20;;
17361;SDS011;8798;51.938;4.348;2023-12-22T03:19:57;10.57;;;1.47;;
17361;SDS011;8798;51.938;4.348;2023-12-22T03:22:25;10.10;;;1.40;;
17361;SDS011;8798;51.938;4.348;2023-12-22T03:24:54;9.73;;;1.67;;
17361;SDS011;8798;51.938;4.348;2023-12-22T03:27:22;11.67;;;1.80;;
17361;SDS011;8798;51.938;4.348;2023-12-22T03:29:50;5.90;;;1.80;;
17361;SDS011;8798;51.938;4.348;2023-12-22T03:32:20;8.33;;;1.77;;
17361;SDS011;8798;51.938;4.348;2023-12-22T03:34:49;10.10;;;1.70;;
17361;SDS011;8798;51.938;4.348;2023-12-22T03:37:17;9.20;;;1.93;;
17361;SDS011;8798;51.938;4.348;2023-12-22T03:39:45;9.23;;;1.80;;
17361;SDS011;8798;51.938;4.348;2023-12-22T03:42:14;10.60;;;1.63;;
17361;SDS011;8798;51.938;4.348;2023-12-22T03:44:42;7.27;;;1.90;;
17361;SDS011;8798;51.938;4.348;2023-12-22T03:47:10;15.67;;;1.80;;
17361;SDS011;8798;51.938;4.348;2023-12-22T03:49:39;14.60;;;2.60;;
17361;SDS011;8798;51.938;4.348;2023-12-22T03:52:07;7.07;;;1.70;;
17361;SDS011;8798;51.938;4.348;2023-12-22T03:54:37;9.43;;;1.70;;
17361;SDS011;8798;51.938;4.348;2023-12-22T03:57:05;9.70;;;1.40;;
17361;SDS011;8798;51.938;4.348;2023-12-22T03:59:32;9.60;;;1.80;;
17361;SDS011;8798;51.938;4.348;2023-12-22T04:02:01;9.63;;;1.80;;
17361;SDS011;8798;51.938;4.348;2023-12-22T04:04:29;8.70;;;1.77;;
17361;SDS011;8798;51.938;4.348;2023-12-22T04:06:58;7.17;;;1.60;;
17361;SDS011;8798;51.938;4.348;2023-12-22T04:09:26;9.83;;;1.60;;
17361;SDS011;8798;51.938;4.348;2023-12-22T04:11:55;8.40;;;1.47;;
17361;SDS011;8798;51.938;4.348;2023-12-22T04:14:23;13.13;;;1.60;;
17361;SDS011;8798;51.938;4.348;2023-12-22T04:16:51;8.23;;;1.90;;
17361;SDS011;8798;51.938;4.348;2023-12-22T04:19:19;9.67;;;2.10;;
17361;SDS011;8798;51.938;4.348;2023-12-22T04:21:48;7.50;;;1.50;;
17361;SDS011;8798;51.938;4.348;2023-12-22T04:24:17;11.03;;;1.60;;
17361;SDS011;8798;51.938;4.348;2023-12-22T04:26:45;16.70;;;1.60;;
17361;SDS011;8798;51.938;4.348;2023-12-22T04:29:13;7.33;;;1.60;;
17361;SDS011;8798;51.938;4.348;2023-12-22T04:31:42;14.17;;;2.27;;
17361;SDS011;8798;51.938;4.348;2023-12-22T04:34:13;10.17;;;1.87;;
17361;SDS011;8798;51.938;4.348;2023-12-22T04:36:42;15.93;;;2.70;;
17361;SDS011;8798;51.938;4.348;2023-12-22T04:39:10;16.23;;;2.30;;
17361;SDS011;8798;51.938;4.348;2023-12-22T04:41:40;16.83;;;2.57;;
17361;SDS011;8798;51.938;4.348;2023-12-22T04:44:08;11.67;;;1.97;;
17361;SDS011;8798;51.938;4.348;2023-12-22T04:46:36;11.00;;;1.60;;
17361;SDS011;8798;51.938;4.348;2023-12-22T04:49:04;12.00;;;2.17;;
17361;SDS011;8798;51.938;4.348;2023-12-22T04:51:32;8.07;;;2.17;;
17361;SDS011;8798;51.938;4.348;2023-12-22T04:54:00;11.87;;;1.80;;
17361;SDS011;8798;51.938;4.348;2023-12-22T04:56:29;16.13;;;2.87;;
17361;SDS011;8798;51.938;4.348;2023-12-22T04:58:58;13.50;;;2.53;;
17361;SDS011;8798;51.938;4.348;2023-12-22T05:01:26;17.70;;;2.97;;
17361;SDS011;8798;51.938;4.348;2023-12-22T05:03:55;18.70;;;2.50;;
17361;SDS011;8798;51.938;4.348;2023-12-22T05:06:23;14.63;;;2.07;;
17361;SDS011;8798;51.938;4.348;2023-12-22T05:08:51;16.43;;;2.87;;
17361;SDS011;8798;51.938;4.348;2023-12-22T05:11:19;20.67;;;3.87;;
17361;SDS011;8798;51.938;4.348;2023-12-22T05:13:47;22.13;;;3.00;;
17361;SDS011;8798;51.938;4.348;2023-12-22T05:16:17;19.37;;;3.60;;
17361;SDS011;8798;51.938;4.348;2023-12-22T05:18:46;16.03;;;3.03;;
17361;SDS011;8798;51.938;4.348;2023-12-22T05:21:14;19.30;;;3.47;;
17361;SDS011;8798;51.938;4.348;2023-12-22T05:23:42;20.87;;;3.10;;
17361;SDS011;8798;51.938;4.348;2023-12-22T05:26:15;14.83;;;3.53;;
17361;SDS011;8798;51.938;4.348;2023-12-22T05:28:44;25.07;;;3.67;;
17361;SDS011;8798;51.938;4.348;2023-12-22T05:31:12;22.37;;;3.60;;
17361;SDS011;8798;51.938;4.348;2023-12-22T05:33:42;16.63;;;3.40;;
17361;SDS011;8798;51.938;4.348;2023-12-22T05:36:10;17.77;;;3.33;;
17361;SDS011;8798;51.938;4.348;2023-12-22T05:38:59;23.03;;;3.93;;
17361;SDS011;8798;51.938;4.348;2023-12-22T05:41:27;19.03;;;3.20;;
17361;SDS011;8798;51.938;4.348;2023-12-22T05:43:55;20.43;;;3.47;;
17361;SDS011;8798;51.938;4.348;2023-12-22T05:46:23;13.73;;;3.37;;
17361;SDS011;8798;51.938;4.348;2023-12-22T05:48:53;23.30;;;3.80;;
17361;SDS011;8798;51.938;4.348;2023-12-22T05:51:24;17.83;;;3.83;;
17361;SDS011;8798;51.938;4.348;2023-12-22T05:53:52;22.17;;;3.60;;
17361;SDS011;8798;51.938;4.348;2023-12-22T05:56:21;24.73;;;4.10;;
17361;SDS011;8798;51.938;4.348;2023-12-22T05:58:49;21.00;;;3.50;;
17361;SDS011;8798;51.938;4.348;2023-12-22T06:01:18;18.73;;;3.80;;
17361;SDS011;8798;51.938;4.348;2023-12-22T06:03:46;21.93;;;3.23;;
17361;SDS011;8798;51.938;4.348;2023-12-22T06:06:16;23.77;;;4.03;;
17361;SDS011;8798;51.938;4.348;2023-12-22T06:08:45;17.30;;;3.30;;
17361;SDS011;8798;51.938;4.348;2023-12-22T06:11:13;21.53;;;4.27;;
17361;SDS011;8798;51.938;4.348;2023-12-22T06:13:41;24.47;;;4.23;;
17361;SDS011;8798;51.938;4.348;2023-12-22T06:16:13;15.20;;;3.63;;
17361;SDS011;8798;51.938;4.348;2023-12-22T06:18:41;20.33;;;3.93;;
17361;SDS011;8798;51.938;4.348;2023-12-22T06:21:10;21.20;;;3.90;;
17361;SDS011;8798;51.938;4.348;2023-12-22T06:23:40;19.17;;;3.97;;
17361;SDS011;8798;51.938;4.348;2023-12-22T06:26:08;21.20;;;4.33;;
17361;SDS011;8798;51.938;4.348;2023-12-22T06:28:38;14.50;;;3.13;;
17361;SDS011;8798;51.938;4.348;2023-12-22T06:31:07;17.67;;;3.20;;
17361;SDS011;8798;51.938;4.348;2023-12-22T06:33:37;15.63;;;3.43;;
17361;SDS011;8798;51.938;4.348;2023-12-22T06:36:05;16.70;;;3.47;;
17361;SDS011;8798;51.938;4.348;2023-12-22T06:38:34;21.60;;;4.03;;
17361;SDS011;8798;51.938;4.348;2023-12-22T06:41:18;17.30;;;3.30;;
17361;SDS011;8798;51.938;4.348;2023-12-22T06:43:53;19.27;;;3.40;;
17361;SDS011;8798;51.938;4.348;2023-12-22T06:46:22;20.60;;;3.33;;
17361;SDS011;8798;51.938;4.348;2023-12-22T06:48:52;19.57;;;3.50;;
17361;SDS011;8798;51.938;4.348;2023-12-22T06:51:22;20.87;;;3.47;;
17361;SDS011;8798;51.938;4.348;2023-12-22T06:53:53;19.43;;;3.47;;
17361;SDS011;8798;51.938;4.348;2023-12-22T06:56:22;16.33;;;2.97;;
17361;SDS011;8798;51.938;4.348;2023-12-22T06:58:53;15.67;;;2.93;;
17361;SDS011;8798;51.938;4.348;2023-12-22T07:01:25;18.47;;;3.03;;
17361;SDS011;8798;51.938;4.348;2023-12-22T07:03:56;17.17;;;2.93;;
17361;SDS011;8798;51.938;4.348;2023-12-22T07:06:25;18.03;;;3.23;;
17361;SDS011;8798;51.938;4.348;2023-12-22T07:11:59;17.33;;;3.33;;
17361;SDS011;8798;51.938;4.348;2023-12-22T07:14:30;18.40;;;2.87;;
17361;SDS011;8798;51.938;4.348;2023-12-22T07:17:01;13.63;;;2.33;;
17361;SDS011;8798;51.938;4.348;2023-12-22T07:19:30;16.23;;;2.60;;
17361;SDS011;8798;51.938;4.348;2023-12-22T07:21:58;14.53;;;2.37;;
17361;SDS011;8798;51.938;4.348;2023-12-22T07:24:26;12.23;;;2.90;;
17361;SDS011;8798;51.938;4.348;2023-12-22T07:26:56;14.20;;;2.20;;
17361;SDS011;8798;51.938;4.348;2023-12-22T07:29:24;13.77;;;2.13;;
17361;SDS011;8798;51.938;4.348;2023-12-22T07:31:53;11.80;;;2.30;;
17361;SDS011;8798;51.938;4.348;2023-12-22T07:34:21;9.40;;;2.30;;
17361;SDS011;8798;51.938;4.348;2023-12-22T07:36:49;12.00;;;2.03;;
17361;SDS011;8798;51.938;4.348;2023-12-22T07:39:32;9.70;;;2.40;;
17361;SDS011;8798;51.938;4.348;2023-12-22T07:42:03;14.73;;;2.57;;
17361;SDS011;8798;51.938;4.348;2023-12-22T07:44:33;12.90;;;2.70;;
17361;SDS011;8798;51.938;4.348;2023-12-22T07:47:06;15.83;;;2.80;;
17361;SDS011;8798;51.938;4.348;2023-12-22T07:49:36;17.63;;;2.27;;
17361;SDS011;8798;51.938;4.348;2023-12-22T07:52:04;16.33;;;2.20;;
17361;SDS011;8798;51.938;4.348;2023-12-22T07:54:33;7.23;;;1.43;;
17361;SDS011;8798;51.938;4.348;2023-12-22T07:57:03;12.60;;;1.90;;
17361;SDS011;8798;51.938;4.348;2023-12-22T07:59:31;8.83;;;1.80;;
17361;SDS011;8798;51.938;4.348;2023-12-22T08:01:59;9.13;;;2.10;;
17361;SDS011;8798;51.938;4.348;2023-12-22T08:04:30;9.10;;;2.23;;
17361;SDS011;8798;51.938;4.348;2023-12-22T08:06:58;11.97;;;1.60;;
17361;SDS011;8798;51.938;4.348;2023-12-22T08:09:26;8.67;;;1.87;;
17361;SDS011;8798;51.938;4.348;2023-12-22T08:11:54;13.13;;;1.87;;
17361;SDS011;8798;51.938;4.348;2023-12-22T08:14:25;10.07;;;1.90;;
17361;SDS011;8798;51.938;4.348;2023-12-22T08:16:53;8.93;;;2.07;;
17361;SDS011;8798;51.938;4.348;2023-12-22T08:19:21;7.33;;;1.10;;
17361;SDS011;8798;51.938;4.348;2023-12-22T08:21:53;5.57;;;1.10;;
17361;SDS011;8798;51.938;4.348;2023-12-22T08:24:21;4.83;;;1.10;;
17361;SDS011;8798;51.938;4.348;2023-12-22T08:26:50;8.97;;;1.17;;
17361;SDS011;8798;51.938;4.348;2023-12-22T08:29:18;8.10;;;1.13;;
17361;SDS011;8798;51.938;4.348;2023-12-22T08:31:48;6.10;;;1.30;;
17361;SDS011;8798;51.938;4.348;2023-12-22T08:34:20;3.97;;;0.97;;
17361;SDS011;8798;51.938;4.348;2023-12-22T08:36:48;7.17;;;1.40;;
17361;SDS011;8798;51.938;4.348;2023-12-22T08:39:16;5.17;;;0.90;;
17361;SDS011;8798;51.938;4.348;2023-12-22T08:41:45;5.70;;;1.17;;
17361;SDS011;8798;51.938;4.348;2023-12-22T08:44:13;5.13;;;1.27;;
17361;SDS011;8798;51.938;4.348;2023-12-22T08:46:42;7.13;;;1.47;;
17361;SDS011;8798;51.938;4.348;2023-12-22T08:49:12;6.90;;;1.63;;
17361;SDS011;8798;51.938;4.348;2023-12-22T08:51:40;6.47;;;1.23;;
17361;SDS011;8798;51.938;4.348;2023-12-22T08:54:09;9.07;;;1.50;;
17361;SDS011;8798;51.938;4.348;2023-12-22T08:56:37;5.40;;;1.30;;
17361;SDS011;8798;51.938;4.348;2023-12-22T08:59:05;6.87;;;1.20;;
17361;SDS011;8798;51.938;4.348;2023-12-22T09:01:35;5.70;;;1.10;;
17361;SDS011;8798;51.938;4.348;2023-12-22T09:04:03;5.30;;;1.10;;
17361;SDS011;8798;51.938;4.348;2023-12-22T09:06:36;3.77;;;1.10;;
17361;SDS011;8798;51.938;4.348;2023-12-22T09:09:04;6.57;;;1.33;;
17361;SDS011;8798;51.938;4.348;2023-12-22T09:11:34;6.60;;;0.90;;
17361;SDS011;8798;51.938;4.348;2023-12-22T09:14:03;6.53;;;0.90;;
17361;SDS011;8798;51.938;4.348;2023-12-22T09:16:34;8.10;;;1.30;;
17361;SDS011;8798;51.938;4.348;2023-12-22T09:19:03;7.90;;;0.90;;
17361;SDS011;8798;51.938;4.348;2023-12-22T09:21:32;4.23;;;1.20;;
17361;SDS011;8798;51.938;4.348;2023-12-22T09:24:02;7.80;;;1.27;;
17361;SDS011;8798;51.938;4.348;2023-12-22T09:26:30;5.23;;;1.40;;
17361;SDS011;8798;51.938;4.348;2023-12-22T09:28:59;6.77;;;1.33;;
17361;SDS011;8798;51.938;4.348;2023-12-22T09:31:28;4.53;;;1.20;;
17361;SDS011;8798;51.938;4.348;2023-12-22T09:33:56;5.07;;;1.03;;
17361;SDS011;8798;51.938;4.348;2023-12-22T09:36:25;4.50;;;1.10;;
17361;SDS011;8798;51.938;4.348;2023-12-22T09:38:54;3.37;;;1.10;;
17361;SDS011;8798;51.938;4.348;2023-12-22T09:41:24;3.57;;;1.10;;
17361;SDS011;8798;51.938;4.348;2023-12-22T09:43:52;2.93;;;1.03;;
17361;SDS011;8798;51.938;4.348;2023-12-22T09:46:25;3.80;;;1.17;;
17361;SDS011;8798;51.938;4.348;2023-12-22T09:48:55;7.63;;;1.20;;
17361;SDS011;8798;51.938;4.348;2023-12-22T09:51:23;6.90;;;1.27;;
17361;SDS011;8798;51.938;4.348;2023-12-22T09:53:55;6.73;;;1.40;;
17361;SDS011;8798;51.938;4.348;2023-12-22T09:56:30;5.33;;;1.13;;
17361;SDS011;8798;51.938;4.348;2023-12-22T09:58:59;4.37;;;1.27;;
17361;SDS011;8798;51.938;4.348;2023-12-22T10:01:28;3.27;;;0.80;;
17361;SDS011;8798;51.938;4.348;2023-12-22T10:03:58;4.77;;;1.03;;
17361;SDS011;8798;51.938;4.348;2023-12-22T10:06:26;6.67;;;1.20;;
17361;SDS011;8798;51.938;4.348;2023-12-22T10:08:55;4.13;;;1.40;;
17361;SDS011;8798;51.938;4.348;2023-12-22T10:11:24;3.60;;;1.00;;
17361;SDS011;8798;51.938;4.348;2023-12-22T10:13:56;8.67;;;1.30;;
17361;SDS011;8798;51.938;4.348;2023-12-22T10:16:27;6.27;;;1.30;;
17361;SDS011;8798;51.938;4.348;2023-12-22T10:18:58;9.23;;;1.67;;
17361;SDS011;8798;51.938;4.348;2023-12-22T10:21:26;7.57;;;1.50;;
17361;SDS011;8798;51.938;4.348;2023-12-22T10:23:59;4.13;;;1.10;;
17361;SDS011;8798;51.938;4.348;2023-12-22T10:26:28;9.57;;;1.57;;
17361;SDS011;8798;51.938;4.348;2023-12-22T10:28:58;9.77;;;1.30;;
17361;SDS011;8798;51.938;4.348;2023-12-22T10:31:26;5.73;;;1.47;;
17361;SDS011;8798;51.938;4.348;2023-12-22T10:33:55;5.87;;;1.10;;
17361;SDS011;8798;51.938;4.348;2023-12-22T10:36:23;4.70;;;1.10;;
17361;SDS011;8798;51.938;4.348;2023-12-22T10:38:51;6.07;;;1.13;;
17361;SDS011;8798;51.938;4.348;2023-12-22T10:41:21;6.53;;;1.30;;
17361;SDS011;8798;51.938;4.348;2023-12-22T10:43:50;7.93;;;1.30;;
17361;SDS011;8798;51.938;4.348;2023-12-22T10:46:20;7.90;;;1.30;;
17361;SDS011;8798;51.938;4.348;2023-12-22T10:48:52;9.93;;;1.30;;
17361;SDS011;8798;51.938;4.348;2023-12-22T10:51:21;4.03;;;1.13;;
17361;SDS011;8798;51.938;4.348;2023-12-22T10:53:49;6.40;;;1.37;;
17361;SDS011;8798;51.938;4.348;2023-12-22T10:56:18;4.50;;;1.40;;
17361;SDS011;8798;51.938;4.348;2023-12-22T10:58:48;4.83;;;1.20;;
17361;SDS011;8798;51.938;4.348;2023-12-22T11:01:16;8.77;;;1.47;;
17361;SDS011;8798;51.938;4.348;2023-12-22T11:03:45;9.30;;;1.40;;
17361;SDS011;8798;51.938;4.348;2023-12-22T11:06:18;7.53;;;1.30;;
17361;SDS011;8798;51.938;4.348;2023-12-22T11:08:48;6.57;;;1.40;;
17361;SDS011;8798;51.938;4.348;2023-12-22T11:11:20;9.40;;;1.77;;
17361;SDS011;8798;51.938;4.348;2023-12-22T11:13:56;8.33;;;1.40;;
17361;SDS011;8798;51.938;4.348;2023-12-22T11:16:25;5.03;;;1.30;;
17361;SDS011;8798;51.938;4.348;2023-12-22T11:18:57;7.33;;;1.30;;
17361;SDS011;8798;51.938;4.348;2023-12-22T11:21:26;5.40;;;1.13;;
17361;SDS011;8798;51.938;4.348;2023-12-22T11:23:56;5.77;;;1.20;;
17361;SDS011;8798;51.938;4.348;2023-12-22T11:26:25;5.67;;;1.20;;
17361;SDS011;8798;51.938;4.348;2023-12-22T11:28:53;6.93;;;1.23;;
17361;SDS011;8798;51.938;4.348;2023-12-22T11:31:23;8.47;;;1.83;;
17361;SDS011;8798;51.938;4.348;2023-12-22T11:33:53;5.50;;;1.53;;
17361;SDS011;8798;51.938;4.348;2023-12-22T11:36:36;11.80;;;1.30;;
17361;SDS011;8798;51.938;4.348;2023-12-22T11:39:06;9.47;;;1.87;;
17361;SDS011;8798;51.938;4.348;2023-12-22T11:41:35;7.23;;;1.57;;
17361;SDS011;8798;51.938;4.348;2023-12-22T11:44:05;15.47;;;2.00;;
17361;SDS011;8798;51.938;4.348;2023-12-22T11:46:34;7.60;;;1.50;;
17361;SDS011;8798;51.938;4.348;2023-12-22T11:49:03;9.80;;;1.47;;
17361;SDS011;8798;51.938;4.348;2023-12-22T11:51:32;7.60;;;1.63;;
17361;SDS011;8798;51.938;4.348;2023-12-22T11:54:03;7.57;;;1.43;;
17361;SDS011;8798;51.938;4.348;2023-12-22T11:56:51;5.80;;;1.20;;
17361;SDS011;8798;51.938;4.348;2023-12-22T11:59:20;6.23;;;1.33;;
17361;SDS011;8798;51.938;4.348;2023-12-22T12:01:54;8.60;;;1.30;;
17361;SDS011;8798;51.938;4.348;2023-12-22T12:04:22;4.90;;;1.20;;
17361;SDS011;8798;51.938;4.348;2023-12-22T12:06:51;5.83;;;1.23;;
17361;SDS011;8798;51.938;4.348;2023-12-22T12:09:20;7.53;;;1.40;;
17361;SDS011;8798;51.938;4.348;2023-12-22T12:12:14;9.87;;;1.63;;
17361;SDS011;8798;51.938;4.348;2023-12-22T12:14:47;6.93;;;1.30;;
17361;SDS011;8798;51.938;4.348;2023-12-22T12:18:14;6.97;;;1.30;;
17361;SDS011;8798;51.938;4.348;2023-12-22T12:20:42;4.97;;;1.53;;
17361;SDS011;8798;51.938;4.348;2023-12-22T12:23:13;5.40;;;1.27;;
17361;SDS011;8798;51.938;4.348;2023-12-22T12:25:45;6.37;;;1.50;;
17361;SDS011;8798;51.938;4.348;2023-12-22T12:28:15;9.50;;;1.77;;
17361;SDS011;8798;51.938;4.348;2023-12-22T12:30:44;7.73;;;1.10;;
17361;SDS011;8798;51.938;4.348;2023-12-22T12:33:14;6.67;;;1.50;;
17361;SDS011;8798;51.938;4.348;2023-12-22T12:35:44;7.23;;;1.60;;
17361;SDS011;8798;51.938;4.348;2023-12-22T12:38:19;8.23;;;1.23;;
17361;SDS011;8798;51.938;4.348;2023-12-22T12:40:52;3.10;;;1.10;;
17361;SDS011;8798;51.938;4.348;2023-12-22T12:43:21;11.10;;;1.97;;
17361;SDS011;8798;51.938;4.348;2023-12-22T12:45:51;3.93;;;1.10;;
17361;SDS011;8798;51.938;4.348;2023-12-22T12:48:20;9.53;;;1.47;;
17361;SDS011;8798;51.938;4.348;2023-12-22T12:50:49;5.90;;;1.50;;
17361;SDS011;8798;51.938;4.348;2023-12-22T12:53:18;6.10;;;1.20;;
17361;SDS011;8798;51.938;4.348;2023-12-22T12:55:47;8.63;;;1.67;;
17361;SDS011;8798;51.938;4.348;2023-12-22T12:58:18;8.93;;;1.50;;
17361;SDS011;8798;51.938;4.348;2023-12-22T13:00:46;6.90;;;1.50;;
17361;SDS011;8798;51.938;4.348;2023-12-22T13:03:15;4.43;;;1.23;;
17361;SDS011;8798;51.938;4.348;2023-12-22T13:05:43;7.87;;;1.60;;
17361;SDS011;8798;51.938;4.348;2023-12-22T13:08:12;9.53;;;1.60;;
17361;SDS011;8798;51.938;4.348;2023-12-22T13:10:41;7.07;;;1.60;;
17361;SDS011;8798;51.938;4.348;2023-12-22T13:13:10;8.60;;;1.23;;
17361;SDS011;8798;51.938;4.348;2023-12-22T13:15:41;11.83;;;2.17;;
17361;SDS011;8798;51.938;4.348;2023-12-22T13:18:09;8.27;;;1.70;;
17361;SDS011;8798;51.938;4.348;2023-12-22T13:20:37;12.63;;;1.63;;
17361;SDS011;8798;51.938;4.348;2023-12-22T13:23:05;6.13;;;1.20;;
17361;SDS011;8798;51.938;4.348;2023-12-22T13:25:37;7.33;;;1.70;;
17361;SDS011;8798;51.938;4.348;2023-12-22T13:28:07;6.20;;;1.07;;
17361;SDS011;8798;51.938;4.348;2023-12-22T13:30:35;5.87;;;1.67;;
17361;SDS011;8798;51.938;4.348;2023-12-22T13:33:06;5.90;;;1.00;;
17361;SDS011;8798;51.938;4.348;2023-12-22T13:35:35;8.97;;;1.40;;
17361;SDS011;8798;51.938;4.348;2023-12-22T13:38:08;5.00;;;1.10;;
17361;SDS011;8798;51.938;4.348;2023-12-22T13:40:38;5.80;;;1.40;;
17361;SDS011;8798;51.938;4.348;2023-12-22T13:43:07;9.43;;;1.63;;
17361;SDS011;8798;51.938;4.348;2023-12-22T13:45:35;5.97;;;1.37;;
17361;SDS011;8798;51.938;4.348;2023-12-22T13:48:03;6.20;;;1.30;;
17361;SDS011;8798;51.938;4.348;2023-12-22T13:50:34;8.90;;;2.00;;
17361;SDS011;8798;51.938;4.348;2023-12-22T13:53:09;9.67;;;1.57;;
17361;SDS011;8798;51.938;4.348;2023-12-22T13:55:38;11.40;;;1.93;;
17361;SDS011;8798;51.938;4.348;2023-12-22T13:58:07;6.57;;;1.47;;
17361;SDS011;8798;51.938;4.348;2023-12-22T14:00:36;6.80;;;1.53;;
17361;SDS011;8798;51.938;4.348;2023-12-22T14:03:04;11.30;;;1.67;;
17361;SDS011;8798;51.938;4.348;2023-12-22T14:05:34;7.73;;;1.40;;
17361;SDS011;8798;51.938;4.348;2023-12-22T14:08:03;10.03;;;1.93;;
17361;SDS011;8798;51.938;4.348;2023-12-22T14:10:32;14.43;;;2.47;;
17361;SDS011;8798;51.938;4.348;2023-12-22T14:13:00;8.53;;;1.47;;
17361;SDS011;8798;51.938;4.348;2023-12-22T14:15:28;8.70;;;1.93;;
17361;SDS011;8798;51.938;4.348;2023-12-22T14:18:09;8.73;;;2.00;;
17361;SDS011;8798;51.938;4.348;2023-12-22T14:20:40;11.73;;;1.77;;
17361;SDS011;8798;51.938;4.348;2023-12-22T14:23:08;11.47;;;1.60;;
17361;SDS011;8798;51.938;4.348;2023-12-22T14:25:40;6.40;;;1.23;;
17361;SDS011;8798;51.938;4.348;2023-12-22T14:28:08;9.67;;;1.63;;
17361;SDS011;8798;51.938;4.348;2023-12-22T14:30:36;7.57;;;1.97;;
17361;SDS011;8798;51.938;4.348;2023-12-22T14:33:06;11.90;;;2.03;;
17361;SDS011;8798;51.938;4.348;2023-12-22T14:35:36;4.37;;;1.30;;
17361;SDS011;8798;51.938;4.348;2023-12-22T14:38:05;9.80;;;1.97;;
17361;SDS011;8798;51.938;4.348;2023-12-22T14:40:34;9.50;;;1.90;;
17361;SDS011;8798;51.938;4.348;2023-12-22T14:43:02;10.23;;;2.03;;
17361;SDS011;8798;51.938;4.348;2023-12-22T14:45:30;9.03;;;1.77;;
17361;SDS011;8798;51.938;4.348;2023-12-22T14:47:59;8.53;;;1.87;;
17361;SDS011;8798;51.938;4.348;2023-12-22T14:50:27;7.70;;;1.67;;
17361;SDS011;8798;51.938;4.348;2023-12-22T14:52:56;11.27;;;1.80;;
17361;SDS011;8798;51.938;4.348;2023-12-22T14:55:25;5.33;;;1.50;;
17361;SDS011;8798;51.938;4.348;2023-12-22T14:57:54;12.63;;;1.70;;
17361;SDS011;8798;51.938;4.348;2023-12-22T15:00:22;12.50;;;1.77;;
17361;SDS011;8798;51.938;4.348;2023-12-22T15:02:50;11.77;;;1.73;;
17361;SDS011;8798;51.938;4.348;2023-12-22T15:05:19;8.17;;;1.60;;
17361;SDS011;8798;51.938;4.348;2023-12-22T15:07:49;9.17;;;1.90;;
17361;SDS011;8798;51.938;4.348;2023-12-22T15:10:18;7.33;;;1.73;;
17361;SDS011;8798;51.938;4.348;2023-12-22T15:12:49;7.93;;;1.87;;